BUCHANAN DAM (BUC)

Elevation: 450' · CHOWCHILLA R basin · Operator: US Army Corps of Engineers

Provisional data, subject to change.
Query executed Monday at 14:14:05   clock

Select a sensor type for a plot of data.
Note: Reservoir Flows are daily averages.

Earlier

Date RES ELE    STORAGE    RES CHG    TOC STO    ABV TOC    OUTFLOW    INFLOW    PPT INC    TEMP MN    TEMP MX   
 FEET   AF   AF   AF   AF   CFS   CFS   INCHES   DEG F   DEG F  
10/25/2014 469.09 11708 -10 122802 -111094 0 -2 -- 12 26
10/26/2014 469.08 11702 -6 122308 -110606 0 -1 -- 11 21
10/27/2014 469.06 11692 -10 121813 -110121 0 -3 -- 7 23
10/28/2014 469.05 11687 -5 121319 -109632 0 -0 -- 9 25
10/29/2014 469.04 11681 -6 120824 -109143 0 -1 -- 9 27
10/30/2014 469.04 11681 0 120330 -108649 0 3 -- 11 31
10/31/2014 469.03 11676 -5 119835 -108159 0 -0 -- 11 24
11/01/2014 469.15 11739 63 119341 -107602 0 33 -- 9 17
11/02/2014 469.14 11734 -5 118846 -107112 0 -1 -- 6 17
11/03/2014 469.12 11723 -11 118352 -106629 0 -4 -- 6 19
11/04/2014 469.12 11723 0 117857 -106134 0 2 -- 7 19
11/05/2014 469.11 11718 -5 117363 -105645 0 -1 -- 7 24
11/06/2014 469.10 11713 -5 116868 -105155 0 -0 -- 10 26
11/07/2014 469.10 11713 0 116374 -104661 0 2 -- 10 24
11/08/2014 469.09 11708 -5 115879 -104171 0 -1 -- 10 25
11/09/2014 469.08 11702 -6 115385 -103683 0 -1 -- 10 25
11/10/2014 469.08 11702 0 114890 -103188 0 2 -- 9 24
11/11/2014 469.07 11697 -5 114396 -102699 0 -1 -- 9 19
11/12/2014 469.07 11697 0 113901 -102204 0 1 -- 11 20
11/13/2014 469.09 11708 11 113407 -101699 0 6 -- 12 17
11/14/2014 469.08 11702 -6 112912 -101210 0 -2 -- 9 20
11/15/2014 469.08 11702 0 112418 -100716 0 1 -- 7 18
11/16/2014 469.07 11697 -5 111923 -100226 394 392 -- 5 14
11/17/2014 469.07 11697 0 111429 -99732 0 1 -- 3 18
11/18/2014 469.05 11687 -10 110934 -99247 0 -4 -- 5 21
11/19/2014 469.04 11681 -6 110440 -98759 0 -2 -- 9 20
11/20/2014 469.05 11687 6 109945 -98258 0 4 -- 6 15
11/21/2014 469.04 11681 -- 109451 -- 0 -2 -- 6 12
11/22/2014 469.05 11687 -- 108956 -- 0 4 -- 8 14
11/23/2014 469.04 11681 -- 108462 -96781 0 -2 -- 7 15
11/24/2014 -- -- -- -- -- -- -- -- -- --

Later | Latest

Warning! This data is preliminary and subject to revision.

Show BUC Map | Plot BUC Data | 1 Month BUC Data | Real-Time BUC Data | BUC Info